createdAt,value
2023-04-19T00:01:28.412Z,7.07
2023-04-19T00:04:33.903Z,6.67
2023-04-19T00:07:37.581Z,5.90
2023-04-19T00:10:41.116Z,6.57
2023-04-19T00:13:44.676Z,6.20
2023-04-19T00:16:48.410Z,6.00
2023-04-19T00:19:53.469Z,6.03
2023-04-19T00:22:58.644Z,5.60
2023-04-19T00:26:04.666Z,6.30
2023-04-19T00:29:09.135Z,5.70
2023-04-19T00:32:12.629Z,5.87
2023-04-19T00:35:17.584Z,5.77
2023-04-19T00:38:20.996Z,5.50
2023-04-19T00:41:24.509Z,5.97
2023-04-19T00:44:28.380Z,5.50
2023-04-19T00:47:32.147Z,5.87
2023-04-19T00:50:37.399Z,6.27
2023-04-19T00:53:42.795Z,6.03
2023-04-19T00:56:47.147Z,6.03
2023-04-19T00:59:51.241Z,6.67
2023-04-19T01:02:55.722Z,6.50
2023-04-19T01:06:00.841Z,6.13
2023-04-19T01:09:05.116Z,5.93
2023-04-19T01:12:08.823Z,5.87
2023-04-19T01:15:13.093Z,6.00
2023-04-19T01:18:17.106Z,6.20
2023-04-19T01:21:23.128Z,5.30
2023-04-19T01:24:27.988Z,5.77
2023-04-19T01:27:32.239Z,6.87
2023-04-19T01:30:38.041Z,5.63
2023-04-19T01:33:41.573Z,5.30
2023-04-19T01:36:45.047Z,6.07
2023-04-19T01:39:49.953Z,5.70
2023-04-19T01:42:54.071Z,5.53
2023-04-19T01:45:57.600Z,5.43
2023-04-19T01:49:01.119Z,5.40
2023-04-19T01:52:04.758Z,5.70
2023-04-19T01:55:10.648Z,6.00
2023-04-19T01:58:14.207Z,5.20
2023-04-19T02:01:17.872Z,6.10
2023-04-19T02:04:22.393Z,6.10
2023-04-19T02:07:26.005Z,5.73
2023-04-19T02:10:31.005Z,5.87
2023-04-19T02:13:34.536Z,6.00
2023-04-19T02:16:38.052Z,5.20
2023-04-19T02:19:41.508Z,5.80
2023-04-19T02:22:45.177Z,6.03
2023-04-19T02:25:50.046Z,5.60
2023-04-19T02:28:55.299Z,6.43
2023-04-19T02:31:59.680Z,6.40
2023-04-19T02:35:03.531Z,6.20
2023-04-19T02:38:07.021Z,5.90
2023-04-19T02:41:11.871Z,5.57
2023-04-19T02:44:15.578Z,5.57
2023-04-19T02:47:19.241Z,5.43
2023-04-19T02:50:22.962Z,5.33
2023-04-19T02:53:26.507Z,5.67
2023-04-19T02:56:31.381Z,5.40
2023-04-19T02:59:34.856Z,6.10
2023-04-19T03:02:39.582Z,5.67
2023-04-19T03:05:43.256Z,6.67
2023-04-19T03:08:47.020Z,5.73
2023-04-19T03:11:51.867Z,6.13
2023-04-19T03:14:55.358Z,5.90
2023-04-19T03:17:58.990Z,6.50
2023-04-19T03:21:02.616Z,6.27
2023-04-19T03:24:06.661Z,6.00
2023-04-19T03:27:11.588Z,6.00
2023-04-19T03:30:15.492Z,6.20
2023-04-19T03:33:19.168Z,6.77
2023-04-19T03:36:23.452Z,5.97
2023-04-19T03:39:26.948Z,6.20
2023-04-19T03:42:32.060Z,6.20
2023-04-19T03:45:35.583Z,5.50
2023-04-19T03:48:39.268Z,6.30
2023-04-19T03:51:42.795Z,5.50
2023-04-19T03:54:46.364Z,6.13
2023-04-19T03:57:51.505Z,6.73
2023-04-19T04:00:54.995Z,6.57
2023-04-19T04:03:58.698Z,6.33
2023-04-19T04:07:02.587Z,5.87
2023-04-19T04:10:07.629Z,5.93
2023-04-19T04:13:12.511Z,6.03
2023-04-19T04:16:16.118Z,5.53
2023-04-19T04:19:22.009Z,6.30
2023-04-19T04:22:25.949Z,5.80
2023-04-19T04:25:30.064Z,5.93
2023-04-19T04:28:34.981Z,6.60
2023-04-19T04:31:38.607Z,5.63
2023-04-19T04:34:43.056Z,6.13
2023-04-19T04:37:46.627Z,5.90
2023-04-19T04:40:53.640Z,6.53
2023-04-19T04:44:12.166Z,6.83
2023-04-19T04:47:16.223Z,5.87
2023-04-19T04:50:19.849Z,6.53
2023-04-19T04:53:23.340Z,7.00
2023-04-19T04:56:27.502Z,6.23
2023-04-19T04:59:32.583Z,6.07
2023-04-19T05:02:36.503Z,5.93
2023-04-19T05:05:40.260Z,6.63
2023-04-19T05:08:44.016Z,6.67
2023-04-19T05:11:49.148Z,7.00
2023-04-19T05:14:55.171Z,5.40
2023-04-19T05:17:58.777Z,6.20
2023-04-19T05:21:03.194Z,5.93
2023-04-19T05:24:10.192Z,6.07
2023-04-19T05:27:14.019Z,5.53
2023-04-19T05:30:19.193Z,6.13
2023-04-19T05:33:22.798Z,6.33
2023-04-19T05:36:26.965Z,6.00
2023-04-19T05:39:30.638Z,5.20
2023-04-19T05:42:34.167Z,5.43
2023-04-19T05:45:39.332Z,5.63
2023-04-19T05:48:42.896Z,5.47
2023-04-19T05:51:46.460Z,4.83
2023-04-19T05:54:50.013Z,5.20
2023-04-19T05:57:53.590Z,4.73
2023-04-19T06:00:58.540Z,5.13
2023-04-19T06:04:02.788Z,4.13
2023-04-19T06:07:13.492Z,4.93
2023-04-19T06:10:21.495Z,4.43
2023-04-19T06:13:25.085Z,4.87
2023-04-19T06:16:30.175Z,5.30
2023-04-19T06:19:34.115Z,4.40
2023-04-19T06:22:44.193Z,4.47
2023-04-19T06:25:48.999Z,3.77
2023-04-19T06:28:52.702Z,3.80
2023-04-19T06:31:57.694Z,3.83
2023-04-19T06:35:01.297Z,3.20
2023-04-19T06:38:04.826Z,3.30
2023-04-19T06:41:09.303Z,3.47
2023-04-19T06:44:13.445Z,4.07
2023-04-19T06:47:18.404Z,3.73
2023-04-19T06:50:22.168Z,2.90
2023-04-19T06:53:26.817Z,3.23
2023-04-19T06:56:46.674Z,3.00
2023-04-19T06:59:50.413Z,2.97
2023-04-19T07:02:55.460Z,3.17
2023-04-19T07:05:59.186Z,3.53
2023-04-19T07:09:03.798Z,2.97
2023-04-19T07:12:08.282Z,3.03
2023-04-19T07:15:24.972Z,2.73
2023-04-19T07:18:29.947Z,3.07
2023-04-19T07:21:35.130Z,3.20
2023-04-19T07:24:40.289Z,2.77
2023-04-19T07:27:43.946Z,2.70
2023-04-19T07:30:47.581Z,2.70
2023-04-19T07:33:52.698Z,2.33
2023-04-19T07:36:56.320Z,2.40
2023-04-19T07:39:59.876Z,2.07
2023-04-19T07:43:03.739Z,2.17
2023-04-19T07:46:12.834Z,2.30
2023-04-19T07:49:17.838Z,1.80
2023-04-19T07:52:22.079Z,1.97
2023-04-19T07:55:25.682Z,2.27
2023-04-19T07:58:29.186Z,2.17
2023-04-19T08:01:33.001Z,2.17
2023-04-19T08:04:39.476Z,1.50
2023-04-19T08:07:43.706Z,0.97
2023-04-19T08:10:47.184Z,1.00
2023-04-19T08:14:02.922Z,1.10
2023-04-19T08:17:25.586Z,0.93
2023-04-19T08:20:32.126Z,1.07
2023-04-19T08:23:47.440Z,1.00
2023-04-19T08:26:54.718Z,1.40
2023-04-19T08:29:58.409Z,1.10
2023-04-19T08:33:02.756Z,0.83
2023-04-19T08:36:09.051Z,1.10
2023-04-19T08:39:24.618Z,1.40
2023-04-19T08:42:37.155Z,1.00
2023-04-19T08:45:41.998Z,1.10
2023-04-19T08:48:48.329Z,1.00
2023-04-19T08:51:54.390Z,1.13
2023-04-19T08:54:59.168Z,1.33
2023-04-19T08:58:09.615Z,1.10
2023-04-19T09:01:26.810Z,1.23
2023-04-19T09:04:37.891Z,1.57
2023-04-19T09:07:43.546Z,1.17
2023-04-19T09:10:55.933Z,1.70
2023-04-19T09:14:10.318Z,1.23
2023-04-19T09:17:18.570Z,1.30
2023-04-19T09:20:38.394Z,1.00
2023-04-19T09:23:49.001Z,1.27
2023-04-19T09:26:57.898Z,1.60
2023-04-19T09:30:04.030Z,1.20
2023-04-19T09:33:08.888Z,1.30
2023-04-19T09:36:14.192Z,1.20
2023-04-19T09:39:31.779Z,1.70
2023-04-19T09:45:54.097Z,1.17
2023-04-19T09:49:25.217Z,1.20
2023-04-19T09:52:31.524Z,1.60
2023-04-19T09:55:48.935Z,1.23
2023-04-19T09:59:12.887Z,1.40
2023-04-19T10:02:27.287Z,1.03
2023-04-19T10:05:31.858Z,1.23
2023-04-19T10:08:35.542Z,1.20
2023-04-19T10:11:42.927Z,1.60
2023-04-19T10:14:47.291Z,1.40
2023-04-19T10:17:51.427Z,1.13
2023-04-19T10:21:02.311Z,1.27
2023-04-19T10:24:07.231Z,1.00
2023-04-19T10:27:13.958Z,1.20
2023-04-19T10:30:22.632Z,1.33
2023-04-19T10:33:28.524Z,1.00
2023-04-19T10:36:32.034Z,1.10
2023-04-19T10:39:43.403Z,1.40
2023-04-19T10:43:24.202Z,1.00
2023-04-19T10:46:42.604Z,1.03
2023-04-19T10:49:47.229Z,1.30
2023-04-19T10:52:50.763Z,1.20
2023-04-19T10:55:54.387Z,1.33
2023-04-19T10:59:24.334Z,1.43
2023-04-19T11:02:32.833Z,1.37
2023-04-19T11:06:19.230Z,1.70
2023-04-19T11:09:24.793Z,1.50
2023-04-19T11:12:28.911Z,1.23
2023-04-19T11:15:33.836Z,1.40
2023-04-19T11:18:37.400Z,1.33
2023-04-19T11:21:41.949Z,1.17
2023-04-19T11:24:48.622Z,1.50
2023-04-19T11:27:54.082Z,1.60
2023-04-19T11:30:59.430Z,1.40
2023-04-19T11:34:05.046Z,1.50
2023-04-19T11:37:12.262Z,1.30
2023-04-19T11:40:18.742Z,1.80
2023-04-19T11:43:22.424Z,1.20
2023-04-19T11:46:27.389Z,1.60
2023-04-19T11:49:33.635Z,1.40
2023-04-19T11:52:37.217Z,1.27
2023-04-19T11:55:43.963Z,1.33
2023-04-19T11:58:49.119Z,1.90
2023-04-19T12:01:54.103Z,2.00
2023-04-19T12:04:57.794Z,1.57
2023-04-19T12:08:08.045Z,2.23
2023-04-19T12:11:11.673Z,1.80
2023-04-19T12:14:18.585Z,1.57
2023-04-19T12:17:23.712Z,1.70
2023-04-19T12:20:32.872Z,2.13
2023-04-19T12:23:36.375Z,1.83
2023-04-19T12:26:56.235Z,1.53
2023-04-19T12:30:00.016Z,1.27
2023-04-19T12:33:05.735Z,1.70
2023-04-19T12:36:09.888Z,1.50
2023-04-19T12:39:13.565Z,1.60
2023-04-19T12:42:17.273Z,1.60
2023-04-19T12:45:21.823Z,1.93
2023-04-19T12:48:27.092Z,1.80
2023-04-19T12:51:31.903Z,1.57
2023-04-19T12:54:35.484Z,1.70
2023-04-19T12:57:39.209Z,1.70
2023-04-19T13:00:43.156Z,1.60
2023-04-19T13:03:48.284Z,2.00
2023-04-19T13:06:51.974Z,1.70
2023-04-19T13:09:56.712Z,1.87
2023-04-19T13:13:00.806Z,1.80
2023-04-19T13:16:04.380Z,2.00
2023-04-19T13:19:09.359Z,2.13
2023-04-19T13:22:14.941Z,2.00
2023-04-19T13:25:18.451Z,1.73
2023-04-19T13:28:21.974Z,2.00
2023-04-19T13:31:27.143Z,2.50
2023-04-19T13:34:33.341Z,1.87
2023-04-19T13:37:36.879Z,1.87
2023-04-19T13:40:40.596Z,1.60
2023-04-19T13:43:44.037Z,1.93
2023-04-19T13:46:47.783Z,2.13
2023-04-19T13:49:53.069Z,1.80
2023-04-19T13:52:56.783Z,2.10
2023-04-19T13:56:00.913Z,2.20
2023-04-19T13:59:04.554Z,2.10
2023-04-19T14:02:08.253Z,2.63
2023-04-19T14:05:13.248Z,2.07
2023-04-19T14:08:16.758Z,2.10
2023-04-19T14:11:20.896Z,2.20
2023-04-19T14:14:25.688Z,2.27
2023-04-19T14:17:29.325Z,2.17
2023-04-19T14:20:34.416Z,2.63
2023-04-19T14:23:38.134Z,2.43
2023-04-19T14:26:41.609Z,1.93
2023-04-19T14:29:45.236Z,2.40
2023-04-19T14:32:48.902Z,2.27
2023-04-19T14:35:54.171Z,1.80
2023-04-19T14:38:57.646Z,1.93
2023-04-19T14:42:01.144Z,2.00
2023-04-19T14:45:07.140Z,1.90
2023-04-19T14:48:10.852Z,2.10
2023-04-19T14:51:15.736Z,1.57
2023-04-19T14:54:21.539Z,2.00
2023-04-19T14:57:25.844Z,2.60
2023-04-19T15:00:29.505Z,1.93
2023-04-19T15:03:33.205Z,1.63
2023-04-19T15:06:38.299Z,1.83
2023-04-19T15:09:41.875Z,1.93
2023-04-19T15:12:45.730Z,1.67
2023-04-19T15:15:49.326Z,2.03
2023-04-19T15:18:53.800Z,2.10
2023-04-19T15:21:58.987Z,2.20
2023-04-19T15:25:02.901Z,1.90
2023-04-19T15:28:06.756Z,3.20
2023-04-19T15:31:10.478Z,2.10
2023-04-19T15:34:14.079Z,1.63
2023-04-19T15:37:18.962Z,2.20
2023-04-19T15:40:24.676Z,1.97
2023-04-19T15:43:29.090Z,1.50
2023-04-19T15:46:32.589Z,2.00
2023-04-19T15:49:36.138Z,1.77
2023-04-19T15:52:41.302Z,1.63
2023-04-19T15:55:46.960Z,1.60
2023-04-19T15:58:50.437Z,1.80
2023-04-19T16:01:53.980Z,1.70
2023-04-19T16:04:57.617Z,1.90
2023-04-19T16:08:08.958Z,1.77
2023-04-19T16:11:12.463Z,1.60
2023-04-19T16:14:16.266Z,1.57
2023-04-19T16:17:19.827Z,1.73
2023-04-19T16:20:23.356Z,1.57
2023-04-19T16:23:28.259Z,1.97
2023-04-19T16:26:31.940Z,1.67
2023-04-19T16:29:35.623Z,2.10
2023-04-19T16:32:39.369Z,1.43
2023-04-19T16:35:43.116Z,1.60
2023-04-19T16:38:47.948Z,2.73
2023-04-19T16:41:52.031Z,1.83
2023-04-19T16:44:55.531Z,1.90
2023-04-19T16:47:59.119Z,1.90
2023-04-19T16:51:02.704Z,1.40
2023-04-19T16:54:07.678Z,1.67
2023-04-19T16:57:11.583Z,1.60
2023-04-19T17:00:16.311Z,2.07
2023-04-19T17:03:20.351Z,1.90
2023-04-19T17:06:24.011Z,1.50
2023-04-19T17:09:29.331Z,1.50
2023-04-19T17:12:32.913Z,1.70
2023-04-19T17:15:38.619Z,1.80
2023-04-19T17:18:42.433Z,1.50
2023-04-19T17:21:45.974Z,1.63
2023-04-19T17:24:50.964Z,1.57
2023-04-19T17:27:54.550Z,1.60
2023-04-19T17:30:58.551Z,2.03
2023-04-19T17:34:02.090Z,1.93
2023-04-19T17:37:05.831Z,1.60
2023-04-19T17:40:12.296Z,1.60
2023-04-19T17:43:15.963Z,1.43
2023-04-19T17:46:20.908Z,1.50
2023-04-19T17:49:26.542Z,1.83
2023-04-19T17:52:30.095Z,1.80
2023-04-19T17:55:35.449Z,1.57
2023-04-19T17:58:38.994Z,1.53
2023-04-19T18:01:42.634Z,1.63
2023-04-19T18:04:46.209Z,1.60
2023-04-19T18:07:50.884Z,1.40
2023-04-19T18:10:55.712Z,1.37
2023-04-19T18:13:59.524Z,1.50
2023-04-19T18:17:05.624Z,1.53
2023-04-19T18:20:13.698Z,1.37
2023-04-19T18:23:17.377Z,1.70
2023-04-19T18:26:22.631Z,1.53
2023-04-19T18:29:26.684Z,1.27
2023-04-19T18:32:31.879Z,1.67
2023-04-19T18:35:37.001Z,1.53
2023-04-19T18:38:40.524Z,1.40
2023-04-19T18:41:45.453Z,1.50
2023-04-19T18:44:54.194Z,1.77
2023-04-19T18:47:58.562Z,1.40
2023-04-19T18:51:02.233Z,1.20
2023-04-19T18:54:06.015Z,1.77
2023-04-19T18:57:23.244Z,1.60
2023-04-19T19:00:30.184Z,1.27
2023-04-19T19:06:41.289Z,1.47
2023-04-19T19:09:55.093Z,2.30
2023-04-19T19:13:00.953Z,1.87
2023-04-19T19:16:06.310Z,2.00
2023-04-19T19:19:10.784Z,2.20
2023-04-19T19:22:26.087Z,1.60
2023-04-19T19:25:33.021Z,1.90
2023-04-19T19:28:37.944Z,1.77
2023-04-19T19:31:43.111Z,1.67
2023-04-19T19:37:54.642Z,1.90
2023-04-19T19:44:06.523Z,1.67
2023-04-19T19:47:10.895Z,1.70
2023-04-19T19:51:01.125Z,1.70
2023-04-19T19:53:38.732Z,1.70
2023-04-19T19:57:00.591Z,1.67
2023-04-19T20:00:36.819Z,1.50
2023-04-19T20:03:38.088Z,2.57
2023-04-19T20:09:51.030Z,1.57
2023-04-19T20:12:57.008Z,1.60
2023-04-19T20:16:02.806Z,1.40
2023-04-19T20:19:10.270Z,1.70
2023-04-19T20:22:13.978Z,1.70
2023-04-19T20:25:17.676Z,1.83
2023-04-19T20:28:21.305Z,1.70
2023-04-19T20:31:26.483Z,1.57
2023-04-19T20:34:30.181Z,1.90
2023-04-19T20:37:33.731Z,2.10
2023-04-19T20:40:37.396Z,1.63
2023-04-19T20:43:41.064Z,2.17
2023-04-19T20:46:46.098Z,1.67
2023-04-19T20:49:49.637Z,1.90
2023-04-19T20:52:53.347Z,1.80
2023-04-19T20:55:56.998Z,1.73
2023-04-19T20:59:00.678Z,1.50
2023-04-19T21:02:05.899Z,1.60
2023-04-19T21:05:09.931Z,1.60
2023-04-19T21:08:15.183Z,1.63
2023-04-19T21:11:18.708Z,2.27
2023-04-19T21:14:22.369Z,1.83
2023-04-19T21:17:27.244Z,1.97
2023-04-19T21:20:30.985Z,1.50
2023-04-19T21:23:34.510Z,1.73
2023-04-19T21:26:38.105Z,1.70
2023-04-19T21:29:41.572Z,2.13
2023-04-19T21:32:51.007Z,1.20
2023-04-19T21:35:54.783Z,1.60
2023-04-19T21:38:58.433Z,2.00
2023-04-19T21:42:01.995Z,1.50
2023-04-19T21:45:07.283Z,1.70
2023-04-19T21:48:12.718Z,1.77
2023-04-19T21:51:17.382Z,1.73
2023-04-19T21:54:32.831Z,1.93
2023-04-19T21:57:38.459Z,1.80
2023-04-19T22:00:42.287Z,2.00
2023-04-19T22:03:47.743Z,1.97
2023-04-19T22:06:51.568Z,2.30
2023-04-19T22:09:56.942Z,2.50
2023-04-19T22:13:02.455Z,2.40
2023-04-19T22:16:08.767Z,2.30
2023-04-19T22:19:14.022Z,2.30
2023-04-19T22:22:17.830Z,2.43
2023-04-19T22:25:21.572Z,2.20
2023-04-19T22:28:25.140Z,2.70
2023-04-19T22:31:28.836Z,2.50
2023-04-19T22:34:33.869Z,2.53
2023-04-19T22:37:37.598Z,2.27
2023-04-19T22:40:41.603Z,2.50
2023-04-19T22:43:45.514Z,2.40
2023-04-19T22:46:50.005Z,2.80
2023-04-19T22:49:55.601Z,2.13
2023-04-19T22:52:59.225Z,2.33
2023-04-19T22:56:02.768Z,2.40
2023-04-19T22:59:08.296Z,2.20
2023-04-19T23:02:11.851Z,1.93
2023-04-19T23:05:18.169Z,2.50
2023-04-19T23:08:22.482Z,2.53
2023-04-19T23:11:26.941Z,2.43
2023-04-19T23:14:30.559Z,2.17
2023-04-19T23:17:34.798Z,2.20
2023-04-19T23:20:39.877Z,2.30
2023-04-19T23:23:43.609Z,2.30
2023-04-19T23:26:47.207Z,2.10
2023-04-19T23:29:50.742Z,2.63
2023-04-19T23:32:54.482Z,2.50
2023-04-19T23:35:59.489Z,2.87
2023-04-19T23:39:03.128Z,2.70
2023-04-19T23:42:06.856Z,2.80
2023-04-19T23:45:11.500Z,2.13
2023-04-19T23:48:15.093Z,2.60
2023-04-19T23:51:21.022Z,2.30
2023-04-19T23:54:26.209Z,2.50
2023-04-19T23:57:29.818Z,2.20
